Terminal Aerodrome Forecast
Issued by NWS

Home | Current Version | Previous Version | Text Only | Print | Product List | Glossary On
Versions: 1 2 3 4 5 6 7 8 9 10 11 12 13 14 15
742
FTUS42 TJSJ 300539
TAFIST
TAF
TIST 300539Z 3006/3106 09005KT P6SM VCSH FEW020
     FM301300 13013KT P6SM SCT025 SCT050
     FM302230 09008KT P6SM SCT020 BKN040=

USA.gov is the U.S. government's official web portal to all federal, state and local government web resources and services.